Jim Hamilton L.B. Owens Airport
KCUB : now visible

Aeroporto :











RITROVATECI SU...

 
LOGIN :

Iscrizione | Disclaimer

   EN    FR    IT 

 









Sommario :    VFR   VFR Marginale   IFR   IFR Intensivo   IFR Molto Intensivo
Visibilità : 
Base nubi : 
>= 8 km
>= 3000ft
5 / 8 km
1000 / 3000 ft
1500m / 5 km
500 / 1000 ft
800 / 1500m
200 / 500 ft
< 800m
< 200 ft
Simboli :   Temporali  Nebbia  Neve Forte  Precipitazioni Forti  Vento > 20 kt






- Altitudine del aeroporto : 193 ft


KCUB - Jim Hamilton L.B. Owens

ULTIMO METAR :
  • 061753Z AUTO 08005KT 10SM CLR 28/24 A3004 RMK AO2 RAE10 SLP170 P0008 60016 T02830239 10294 20256 58010

METARs OBSOLETI :
  • 061714Z AUTO 00000KT 10SM FEW028 SCT042 27/24 A3005 RMK AO2 RAE10 P0008 T02720244
  • 061656Z AUTO VRB04KT 1SM +RA FEW019 BKN042 OVC060 27/24 A3007 RMK AO2 VIS 1/2V5 P0005 T02670239
  • 061651Z AUTO VRB03KT 1 3/4SM +RA FEW019 BKN027 OVC060 27/24 A3007 RMK AO2 RAB49 P0006
  • 061624Z AUTO VRB04KT 10SM FEW027 SCT034 BKN085 29/22 A3007 RMK AO2 LTG DSNT NE-SE T02940222
  • 061553Z AUTO 20006KT 10SM VCTS FEW026 BKN045 BKN090 29/22 A3007 RMK AO2 LTG DSNT E AND SE SLP181 T02890222

TAF KCUB
Valido dal 06 a 18 ore il 07 a 18 ore UTC


061732Z 0618/0718 VRB04KT P6SM VCSH SCT025 BKN060
TEMPO 0618/0622 1SM -TSRA BKN025CB
FM070300 00000KT 6SM -SHRA BR OVC015
FM071000 00000KT 4SM -SHRA BR BKN008 OVC015
FM071400 11005KT 4SM -SHRA BR SCT008 OVC015
FIR KZJX / America del Nord



MetMap, La meteo Aeronautica in un colpo d'occhio ! - Copyright ORBIFLY Dicembre 2007 - Disclaimer

ORBIFLY MET'MAP TEAM :

Programmazione e sviluppo : Alexandra Zaïnal
Concezione : Baudouin d'Aumeries
Aiuto per la programmazione : Marc-Olivier Méhu
Supporto tecnico e logistico : Manuel Goepfert
Aiuto per la traduzione : Arnaldo La Scala

Contatto : metmap@orbifly.com




FONTI E CREDITI :

   NOAA       Earth
Advisory